sensor_id;sensor_type;location;lat;lon;timestamp;temperature;humidity
7814;DHT22;3952;48.364;16.022;2022-08-19T00:00:21;18.80;99.90
7814;DHT22;3952;48.364;16.022;2022-08-19T00:02:49;18.80;99.90
7814;DHT22;3952;48.364;16.022;2022-08-19T00:05:18;18.80;99.90
7814;DHT22;3952;48.364;16.022;2022-08-19T00:07:45;18.80;99.90
7814;DHT22;3952;48.364;16.022;2022-08-19T00:10:14;18.80;99.90
7814;DHT22;3952;48.364;16.022;2022-08-19T00:12:42;18.80;99.90
7814;DHT22;3952;48.364;16.022;2022-08-19T00:15:14;18.80;99.90
7814;DHT22;3952;48.364;16.022;2022-08-19T00:17:43;18.80;99.90
7814;DHT22;3952;48.364;16.022;2022-08-19T00:20:13;18.80;99.90
7814;DHT22;3952;48.364;16.022;2022-08-19T00:22:42;18.80;99.90
7814;DHT22;3952;48.364;16.022;2022-08-19T00:25:10;18.80;99.90
7814;DHT22;3952;48.364;16.022;2022-08-19T00:27:37;18.80;99.90
7814;DHT22;3952;48.364;16.022;2022-08-19T00:30:06;18.70;99.90
7814;DHT22;3952;48.364;16.022;2022-08-19T00:32:37;18.70;99.90
7814;DHT22;3952;48.364;16.022;2022-08-19T00:35:06;18.60;99.90
7814;DHT22;3952;48.364;16.022;2022-08-19T00:37:34;18.50;99.90
7814;DHT22;3952;48.364;16.022;2022-08-19T00:40:03;18.50;99.90
7814;DHT22;3952;48.364;16.022;2022-08-19T00:42:31;18.60;99.90
7814;DHT22;3952;48.364;16.022;2022-08-19T00:44:58;18.60;99.90
7814;DHT22;3952;48.364;16.022;2022-08-19T00:47:25;18.60;99.90
7814;DHT22;3952;48.364;16.022;2022-08-19T00:49:57;18.60;99.90
7814;DHT22;3952;48.364;16.022;2022-08-19T00:52:27;18.50;99.90
7814;DHT22;3952;48.364;16.022;2022-08-19T00:54:56;18.60;99.90
7814;DHT22;3952;48.364;16.022;2022-08-19T00:57:28;18.60;99.90
7814;DHT22;3952;48.364;16.022;2022-08-19T00:59:57;18.60;99.90
7814;DHT22;3952;48.364;16.022;2022-08-19T01:02:26;18.60;99.90
7814;DHT22;3952;48.364;16.022;2022-08-19T01:04:55;18.50;99.90
7814;DHT22;3952;48.364;16.022;2022-08-19T01:07:23;18.50;99.90
7814;DHT22;3952;48.364;16.022;2022-08-19T01:09:50;18.40;99.90
7814;DHT22;3952;48.364;16.022;2022-08-19T01:12:18;18.40;99.90
7814;DHT22;3952;48.364;16.022;2022-08-19T01:14:45;18.40;99.90
7814;DHT22;3952;48.364;16.022;2022-08-19T01:17:14;18.40;99.90
7814;DHT22;3952;48.364;16.022;2022-08-19T01:19:43;18.40;99.90
7814;DHT22;3952;48.364;16.022;2022-08-19T01:22:18;18.40;99.90
7814;DHT22;3952;48.364;16.022;2022-08-19T01:24:48;18.40;99.90
7814;DHT22;3952;48.364;16.022;2022-08-19T01:27:17;18.40;99.90
7814;DHT22;3952;48.364;16.022;2022-08-19T01:29:45;18.40;99.90
7814;DHT22;3952;48.364;16.022;2022-08-19T01:32:15;18.40;99.90
7814;DHT22;3952;48.364;16.022;2022-08-19T01:34:45;18.40;99.90
7814;DHT22;3952;48.364;16.022;2022-08-19T01:37:14;18.20;99.90
7814;DHT22;3952;48.364;16.022;2022-08-19T01:39:42;18.10;99.90
7814;DHT22;3952;48.364;16.022;2022-08-19T01:42:11;18.00;99.90
7814;DHT22;3952;48.364;16.022;2022-08-19T01:44:39;18.00;99.90
7814;DHT22;3952;48.364;16.022;2022-08-19T01:47:07;18.10;99.90
7814;DHT22;3952;48.364;16.022;2022-08-19T01:49:36;18.10;99.90
7814;DHT22;3952;48.364;16.022;2022-08-19T01:52:04;18.00;99.90
7814;DHT22;3952;48.364;16.022;2022-08-19T01:54:32;18.00;99.90
7814;DHT22;3952;48.364;16.022;2022-08-19T01:57:02;18.00;99.90
7814;DHT22;3952;48.364;16.022;2022-08-19T01:59:32;17.90;99.90
7814;DHT22;3952;48.364;16.022;2022-08-19T02:02:03;17.90;99.90
7814;DHT22;3952;48.364;16.022;2022-08-19T02:04:31;17.80;99.90
7814;DHT22;3952;48.364;16.022;2022-08-19T02:06:59;17.70;99.90
7814;DHT22;3952;48.364;16.022;2022-08-19T02:09:27;17.70;99.90
7814;DHT22;3952;48.364;16.022;2022-08-19T02:11:54;17.70;99.90
7814;DHT22;3952;48.364;16.022;2022-08-19T02:14:21;17.70;99.90
7814;DHT22;3952;48.364;16.022;2022-08-19T02:16:50;17.70;99.90
7814;DHT22;3952;48.364;16.022;2022-08-19T02:19:17;17.70;99.90
7814;DHT22;3952;48.364;16.022;2022-08-19T02:21:44;17.70;99.90
7814;DHT22;3952;48.364;16.022;2022-08-19T02:24:12;17.80;99.90
7814;DHT22;3952;48.364;16.022;2022-08-19T02:26:39;17.80;99.90
7814;DHT22;3952;48.364;16.022;2022-08-19T02:29:06;17.80;99.90
7814;DHT22;3952;48.364;16.022;2022-08-19T02:31:33;17.80;99.90
7814;DHT22;3952;48.364;16.022;2022-08-19T02:34:02;17.80;99.90
7814;DHT22;3952;48.364;16.022;2022-08-19T02:36:30;17.80;99.90
7814;DHT22;3952;48.364;16.022;2022-08-19T02:38:57;17.80;99.90
7814;DHT22;3952;48.364;16.022;2022-08-19T02:41:26;17.80;99.90
7814;DHT22;3952;48.364;16.022;2022-08-19T02:43:53;17.80;99.90
7814;DHT22;3952;48.364;16.022;2022-08-19T02:46:24;17.80;99.90
7814;DHT22;3952;48.364;16.022;2022-08-19T02:48:54;17.90;99.90
7814;DHT22;3952;48.364;16.022;2022-08-19T02:51:26;17.90;99.90
7814;DHT22;3952;48.364;16.022;2022-08-19T02:53:54;17.90;99.90
7814;DHT22;3952;48.364;16.022;2022-08-19T02:56:21;17.90;99.90
7814;DHT22;3952;48.364;16.022;2022-08-19T02:58:49;18.00;99.90
7814;DHT22;3952;48.364;16.022;2022-08-19T03:01:22;18.00;99.90
7814;DHT22;3952;48.364;16.022;2022-08-19T03:03:50;18.00;99.90
7814;DHT22;3952;48.364;16.022;2022-08-19T03:06:18;18.00;99.90
7814;DHT22;3952;48.364;16.022;2022-08-19T03:08:48;18.00;99.90
7814;DHT22;3952;48.364;16.022;2022-08-19T03:11:17;18.00;99.90
7814;DHT22;3952;48.364;16.022;2022-08-19T03:13:45;18.00;99.90
7814;DHT22;3952;48.364;16.022;2022-08-19T03:16:13;18.00;99.90
7814;DHT22;3952;48.364;16.022;2022-08-19T03:18:40;17.90;99.90
7814;DHT22;3952;48.364;16.022;2022-08-19T03:21:07;18.00;99.90
7814;DHT22;3952;48.364;16.022;2022-08-19T03:23:35;17.90;99.90
7814;DHT22;3952;48.364;16.022;2022-08-19T03:26:05;17.90;99.90
7814;DHT22;3952;48.364;16.022;2022-08-19T03:28:33;17.90;99.90
7814;DHT22;3952;48.364;16.022;2022-08-19T03:31:02;17.90;99.90
7814;DHT22;3952;48.364;16.022;2022-08-19T03:33:31;17.90;99.90
7814;DHT22;3952;48.364;16.022;2022-08-19T03:36:07;17.90;99.90
7814;DHT22;3952;48.364;16.022;2022-08-19T03:38:37;17.90;99.90
7814;DHT22;3952;48.364;16.022;2022-08-19T03:41:09;17.90;99.90
7814;DHT22;3952;48.364;16.022;2022-08-19T03:43:38;17.90;99.90
7814;DHT22;3952;48.364;16.022;2022-08-19T03:46:08;17.80;99.90
7814;DHT22;3952;48.364;16.022;2022-08-19T03:48:36;17.80;99.90
7814;DHT22;3952;48.364;16.022;2022-08-19T03:51:04;17.80;99.90
7814;DHT22;3952;48.364;16.022;2022-08-19T03:53:34;17.80;99.90
7814;DHT22;3952;48.364;16.022;2022-08-19T03:56:02;17.70;99.90
7814;DHT22;3952;48.364;16.022;2022-08-19T03:58:30;17.70;99.90
7814;DHT22;3952;48.364;16.022;2022-08-19T04:00:58;17.70;99.90
7814;DHT22;3952;48.364;16.022;2022-08-19T04:03:26;17.70;99.90
7814;DHT22;3952;48.364;16.022;2022-08-19T04:05:53;17.70;99.90
7814;DHT22;3952;48.364;16.022;2022-08-19T04:08:21;17.70;99.90
7814;DHT22;3952;48.364;16.022;2022-08-19T04:10:49;17.70;99.90
7814;DHT22;3952;48.364;16.022;2022-08-19T04:13:17;17.70;99.90
7814;DHT22;3952;48.364;16.022;2022-08-19T04:15:46;17.70;99.90
7814;DHT22;3952;48.364;16.022;2022-08-19T04:18:13;17.70;99.90
7814;DHT22;3952;48.364;16.022;2022-08-19T04:20:43;17.70;99.90
7814;DHT22;3952;48.364;16.022;2022-08-19T04:23:10;17.70;99.90
7814;DHT22;3952;48.364;16.022;2022-08-19T04:25:41;17.80;99.90
7814;DHT22;3952;48.364;16.022;2022-08-19T04:28:09;17.70;99.90
7814;DHT22;3952;48.364;16.022;2022-08-19T04:30:39;17.70;99.90
7814;DHT22;3952;48.364;16.022;2022-08-19T04:33:09;17.70;99.90
7814;DHT22;3952;48.364;16.022;2022-08-19T04:35:38;17.70;99.90
7814;DHT22;3952;48.364;16.022;2022-08-19T04:38:07;17.70;99.90
7814;DHT22;3952;48.364;16.022;2022-08-19T04:40:40;17.70;99.90
7814;DHT22;3952;48.364;16.022;2022-08-19T04:43:24;17.70;99.90
7814;DHT22;3952;48.364;16.022;2022-08-19T04:45:52;17.70;99.90
7814;DHT22;3952;48.364;16.022;2022-08-19T04:48:21;17.70;99.90
7814;DHT22;3952;48.364;16.022;2022-08-19T04:50:52;17.80;99.90
7814;DHT22;3952;48.364;16.022;2022-08-19T04:53:24;17.80;99.90
7814;DHT22;3952;48.364;16.022;2022-08-19T04:55:54;17.90;99.90
7814;DHT22;3952;48.364;16.022;2022-08-19T04:58:22;17.90;99.90
7814;DHT22;3952;48.364;16.022;2022-08-19T05:00:50;17.90;99.90
7814;DHT22;3952;48.364;16.022;2022-08-19T05:03:17;18.00;99.90
7814;DHT22;3952;48.364;16.022;2022-08-19T05:05:47;18.00;99.90
7814;DHT22;3952;48.364;16.022;2022-08-19T05:08:18;18.00;99.90
7814;DHT22;3952;48.364;16.022;2022-08-19T05:10:47;17.90;99.90
7814;DHT22;3952;48.364;16.022;2022-08-19T05:13:15;17.90;99.90
7814;DHT22;3952;48.364;16.022;2022-08-19T05:15:44;18.00;99.90
7814;DHT22;3952;48.364;16.022;2022-08-19T05:18:11;18.00;99.90
7814;DHT22;3952;48.364;16.022;2022-08-19T05:20:57;18.00;99.90
7814;DHT22;3952;48.364;16.022;2022-08-19T05:23:42;18.10;99.90
7814;DHT22;3952;48.364;16.022;2022-08-19T05:26:10;18.20;99.90
7814;DHT22;3952;48.364;16.022;2022-08-19T05:28:38;18.20;99.90
7814;DHT22;3952;48.364;16.022;2022-08-19T05:31:05;18.30;99.90
7814;DHT22;3952;48.364;16.022;2022-08-19T05:33:32;18.30;99.90
7814;DHT22;3952;48.364;16.022;2022-08-19T05:36:01;18.30;99.90
7814;DHT22;3952;48.364;16.022;2022-08-19T05:38:28;18.40;99.90
7814;DHT22;3952;48.364;16.022;2022-08-19T05:40:56;18.40;99.90
7814;DHT22;3952;48.364;16.022;2022-08-19T05:43:23;18.40;99.90
7814;DHT22;3952;48.364;16.022;2022-08-19T05:45:51;18.50;99.90
7814;DHT22;3952;48.364;16.022;2022-08-19T05:48:18;18.50;99.90
7814;DHT22;3952;48.364;16.022;2022-08-19T05:50:46;18.50;99.90
7814;DHT22;3952;48.364;16.022;2022-08-19T05:53:17;18.60;99.90
7814;DHT22;3952;48.364;16.022;2022-08-19T05:55:45;18.70;99.90
7814;DHT22;3952;48.364;16.022;2022-08-19T05:58:12;18.70;99.90
7814;DHT22;3952;48.364;16.022;2022-08-19T06:00:39;18.80;99.90
7814;DHT22;3952;48.364;16.022;2022-08-19T06:03:09;18.90;99.90
7814;DHT22;3952;48.364;16.022;2022-08-19T06:05:36;19.00;99.90
7814;DHT22;3952;48.364;16.022;2022-08-19T06:08:03;19.10;99.90
7814;DHT22;3952;48.364;16.022;2022-08-19T06:10:34;19.20;99.90
7814;DHT22;3952;48.364;16.022;2022-08-19T06:13:02;19.30;99.90
7814;DHT22;3952;48.364;16.022;2022-08-19T06:15:31;19.40;99.90
7814;DHT22;3952;48.364;16.022;2022-08-19T06:17:58;19.40;99.90
7814;DHT22;3952;48.364;16.022;2022-08-19T06:20:26;19.50;99.90
7814;DHT22;3952;48.364;16.022;2022-08-19T06:22:53;19.50;99.90
7814;DHT22;3952;48.364;16.022;2022-08-19T06:25:21;19.60;99.90
7814;DHT22;3952;48.364;16.022;2022-08-19T06:27:49;19.60;99.90
7814;DHT22;3952;48.364;16.022;2022-08-19T06:30:17;19.60;99.90
7814;DHT22;3952;48.364;16.022;2022-08-19T06:32:44;19.60;99.90
7814;DHT22;3952;48.364;16.022;2022-08-19T06:35:11;19.70;99.90
7814;DHT22;3952;48.364;16.022;2022-08-19T06:37:40;19.70;99.90
7814;DHT22;3952;48.364;16.022;2022-08-19T06:40:09;19.70;99.90
7814;DHT22;3952;48.364;16.022;2022-08-19T06:42:38;19.70;99.90
7814;DHT22;3952;48.364;16.022;2022-08-19T06:45:08;19.70;99.90
7814;DHT22;3952;48.364;16.022;2022-08-19T06:47:36;19.70;99.90
7814;DHT22;3952;48.364;16.022;2022-08-19T06:50:04;19.70;99.90
7814;DHT22;3952;48.364;16.022;2022-08-19T06:52:34;19.70;99.90
7814;DHT22;3952;48.364;16.022;2022-08-19T06:55:02;19.80;99.90
7814;DHT22;3952;48.364;16.022;2022-08-19T06:57:30;19.80;99.90
7814;DHT22;3952;48.364;16.022;2022-08-19T06:59:58;19.90;99.90
7814;DHT22;3952;48.364;16.022;2022-08-19T07:02:27;19.90;99.90
7814;DHT22;3952;48.364;16.022;2022-08-19T07:04:55;20.00;99.90
7814;DHT22;3952;48.364;16.022;2022-08-19T07:07:23;20.10;99.90
7814;DHT22;3952;48.364;16.022;2022-08-19T07:09:51;20.30;99.90
7814;DHT22;3952;48.364;16.022;2022-08-19T07:12:19;20.40;99.90
7814;DHT22;3952;48.364;16.022;2022-08-19T07:14:46;20.50;99.90
7814;DHT22;3952;48.364;16.022;2022-08-19T07:17:15;20.60;99.90
7814;DHT22;3952;48.364;16.022;2022-08-19T07:19:43;20.80;99.90
7814;DHT22;3952;48.364;16.022;2022-08-19T07:22:10;20.90;99.90
7814;DHT22;3952;48.364;16.022;2022-08-19T07:24:38;21.00;99.90
7814;DHT22;3952;48.364;16.022;2022-08-19T07:27:06;21.20;99.90
7814;DHT22;3952;48.364;16.022;2022-08-19T07:29:36;21.20;99.90
7814;DHT22;3952;48.364;16.022;2022-08-19T07:32:04;21.40;99.90
7814;DHT22;3952;48.364;16.022;2022-08-19T07:34:32;21.50;99.90
7814;DHT22;3952;48.364;16.022;2022-08-19T07:37:04;21.60;99.90
7814;DHT22;3952;48.364;16.022;2022-08-19T07:39:34;21.80;99.90
7814;DHT22;3952;48.364;16.022;2022-08-19T07:42:06;21.90;99.90
7814;DHT22;3952;48.364;16.022;2022-08-19T07:44:34;22.10;99.90
7814;DHT22;3952;48.364;16.022;2022-08-19T07:47:03;22.20;99.90
7814;DHT22;3952;48.364;16.022;2022-08-19T07:49:30;22.30;99.90
7814;DHT22;3952;48.364;16.022;2022-08-19T07:52:01;22.40;99.90
7814;DHT22;3952;48.364;16.022;2022-08-19T07:54:32;22.50;99.90
7814;DHT22;3952;48.364;16.022;2022-08-19T07:57:02;22.50;99.90
7814;DHT22;3952;48.364;16.022;2022-08-19T07:59:30;22.60;99.90
7814;DHT22;3952;48.364;16.022;2022-08-19T08:01:57;22.60;99.90
7814;DHT22;3952;48.364;16.022;2022-08-19T08:04:26;22.70;99.90
7814;DHT22;3952;48.364;16.022;2022-08-19T08:07:11;22.80;99.90
7814;DHT22;3952;48.364;16.022;2022-08-19T08:09:57;22.90;99.90
7814;DHT22;3952;48.364;16.022;2022-08-19T08:12:27;23.10;99.90
7814;DHT22;3952;48.364;16.022;2022-08-19T08:14:58;23.30;99.90
7814;DHT22;3952;48.364;16.022;2022-08-19T08:17:29;23.50;99.90
7814;DHT22;3952;48.364;16.022;2022-08-19T08:19:58;23.60;99.90
7814;DHT22;3952;48.364;16.022;2022-08-19T08:22:25;23.70;99.90
7814;DHT22;3952;48.364;16.022;2022-08-19T08:25:13;23.80;99.90
7814;DHT22;3952;48.364;16.022;2022-08-19T08:27:42;23.80;99.90
7814;DHT22;3952;48.364;16.022;2022-08-19T08:30:12;23.80;99.90
7814;DHT22;3952;48.364;16.022;2022-08-19T08:32:40;23.80;99.90
7814;DHT22;3952;48.364;16.022;2022-08-19T08:35:11;23.90;99.90
7814;DHT22;3952;48.364;16.022;2022-08-19T08:37:39;24.00;99.90
7814;DHT22;3952;48.364;16.022;2022-08-19T08:40:14;24.10;99.90
7814;DHT22;3952;48.364;16.022;2022-08-19T08:42:49;24.10;99.90
7814;DHT22;3952;48.364;16.022;2022-08-19T08:45:19;24.30;99.90
7814;DHT22;3952;48.364;16.022;2022-08-19T08:47:50;24.50;99.90
7814;DHT22;3952;48.364;16.022;2022-08-19T08:50:23;24.70;99.90
7814;DHT22;3952;48.364;16.022;2022-08-19T08:52:56;24.90;99.90
7814;DHT22;3952;48.364;16.022;2022-08-19T08:55:27;24.90;99.90
7814;DHT22;3952;48.364;16.022;2022-08-19T08:58:00;25.00;99.90
7814;DHT22;3952;48.364;16.022;2022-08-19T09:00:30;25.20;99.90
7814;DHT22;3952;48.364;16.022;2022-08-19T09:02:59;25.30;99.90
7814;DHT22;3952;48.364;16.022;2022-08-19T09:05:33;25.40;99.90
7814;DHT22;3952;48.364;16.022;2022-08-19T09:08:08;25.50;99.90
7814;DHT22;3952;48.364;16.022;2022-08-19T09:10:43;25.50;99.90
7814;DHT22;3952;48.364;16.022;2022-08-19T09:13:23;25.60;99.90
7814;DHT22;3952;48.364;16.022;2022-08-19T09:15:56;25.80;99.90
7814;DHT22;3952;48.364;16.022;2022-08-19T09:18:39;25.90;99.90
7814;DHT22;3952;48.364;16.022;2022-08-19T09:21:07;26.00;99.90
7814;DHT22;3952;48.364;16.022;2022-08-19T09:23:35;26.00;99.90
7814;DHT22;3952;48.364;16.022;2022-08-19T09:26:09;26.10;99.90
7814;DHT22;3952;48.364;16.022;2022-08-19T09:28:39;26.20;99.90
7814;DHT22;3952;48.364;16.022;2022-08-19T09:31:09;26.30;99.90
7814;DHT22;3952;48.364;16.022;2022-08-19T09:33:37;26.40;99.90
7814;DHT22;3952;48.364;16.022;2022-08-19T09:36:06;26.60;99.90
7814;DHT22;3952;48.364;16.022;2022-08-19T09:38:34;26.70;99.90
7814;DHT22;3952;48.364;16.022;2022-08-19T09:41:03;26.80;99.90
7814;DHT22;3952;48.364;16.022;2022-08-19T09:43:34;26.90;99.90
7814;DHT22;3952;48.364;16.022;2022-08-19T09:46:03;26.90;99.90
7814;DHT22;3952;48.364;16.022;2022-08-19T09:48:32;27.10;99.90
7814;DHT22;3952;48.364;16.022;2022-08-19T09:51:04;27.30;99.90
7814;DHT22;3952;48.364;16.022;2022-08-19T09:53:33;27.30;99.90
7814;DHT22;3952;48.364;16.022;2022-08-19T09:56:01;27.30;99.90
7814;DHT22;3952;48.364;16.022;2022-08-19T09:58:28;27.40;99.90
7814;DHT22;3952;48.364;16.022;2022-08-19T10:00:58;27.50;99.90
7814;DHT22;3952;48.364;16.022;2022-08-19T10:03:26;27.60;99.90
7814;DHT22;3952;48.364;16.022;2022-08-19T10:05:55;27.70;99.90
7814;DHT22;3952;48.364;16.022;2022-08-19T10:08:24;27.70;99.90
7814;DHT22;3952;48.364;16.022;2022-08-19T10:10:52;27.70;99.90
7814;DHT22;3952;48.364;16.022;2022-08-19T10:13:28;27.80;99.90
7814;DHT22;3952;48.364;16.022;2022-08-19T10:16:04;27.80;99.90
7814;DHT22;3952;48.364;16.022;2022-08-19T10:18:32;27.90;99.90
7814;DHT22;3952;48.364;16.022;2022-08-19T10:21:05;27.80;99.90
7814;DHT22;3952;48.364;16.022;2022-08-19T10:23:37;27.70;99.90
7814;DHT22;3952;48.364;16.022;2022-08-19T10:26:06;27.60;99.90
7814;DHT22;3952;48.364;16.022;2022-08-19T10:28:34;27.60;99.90
7814;DHT22;3952;48.364;16.022;2022-08-19T10:31:10;27.60;99.90
7814;DHT22;3952;48.364;16.022;2022-08-19T10:33:39;27.50;99.90
7814;DHT22;3952;48.364;16.022;2022-08-19T10:36:09;27.60;99.90
7814;DHT22;3952;48.364;16.022;2022-08-19T10:38:37;27.70;99.90
7814;DHT22;3952;48.364;16.022;2022-08-19T10:41:10;27.80;99.90
7814;DHT22;3952;48.364;16.022;2022-08-19T10:43:38;27.90;99.90
7814;DHT22;3952;48.364;16.022;2022-08-19T10:46:09;27.90;99.90
7814;DHT22;3952;48.364;16.022;2022-08-19T10:48:36;27.90;99.90
7814;DHT22;3952;48.364;16.022;2022-08-19T10:51:04;28.00;99.90
7814;DHT22;3952;48.364;16.022;2022-08-19T10:53:49;28.00;99.90
7814;DHT22;3952;48.364;16.022;2022-08-19T10:56:17;27.80;99.90
7814;DHT22;3952;48.364;16.022;2022-08-19T10:59:02;27.90;99.90
7814;DHT22;3952;48.364;16.022;2022-08-19T11:01:33;27.80;99.90
7814;DHT22;3952;48.364;16.022;2022-08-19T11:04:01;27.80;99.90
7814;DHT22;3952;48.364;16.022;2022-08-19T11:06:31;27.80;99.90
7814;DHT22;3952;48.364;16.022;2022-08-19T11:08:58;27.80;99.90
7814;DHT22;3952;48.364;16.022;2022-08-19T11:11:26;27.80;99.90
7814;DHT22;3952;48.364;16.022;2022-08-19T11:13:54;27.70;99.90
7814;DHT22;3952;48.364;16.022;2022-08-19T11:16:23;27.70;99.90
7814;DHT22;3952;48.364;16.022;2022-08-19T11:18:54;27.60;99.90
7814;DHT22;3952;48.364;16.022;2022-08-19T11:21:26;27.60;99.90
7814;DHT22;3952;48.364;16.022;2022-08-19T11:23:56;27.50;99.90
7814;DHT22;3952;48.364;16.022;2022-08-19T11:26:26;27.50;99.90
7814;DHT22;3952;48.364;16.022;2022-08-19T11:28:53;27.50;99.90
7814;DHT22;3952;48.364;16.022;2022-08-19T11:31:22;27.50;99.90
7814;DHT22;3952;48.364;16.022;2022-08-19T11:33:51;27.50;99.90
7814;DHT22;3952;48.364;16.022;2022-08-19T11:36:20;27.50;99.90
7814;DHT22;3952;48.364;16.022;2022-08-19T11:38:48;27.40;99.90
7814;DHT22;3952;48.364;16.022;2022-08-19T11:41:18;27.40;99.90
7814;DHT22;3952;48.364;16.022;2022-08-19T11:43:46;27.40;99.90
7814;DHT22;3952;48.364;16.022;2022-08-19T11:46:15;27.40;99.90
7814;DHT22;3952;48.364;16.022;2022-08-19T11:48:43;27.40;99.90
7814;DHT22;3952;48.364;16.022;2022-08-19T11:51:14;27.40;99.90
7814;DHT22;3952;48.364;16.022;2022-08-19T11:53:41;27.50;99.90
7814;DHT22;3952;48.364;16.022;2022-08-19T11:56:10;27.50;99.90
7814;DHT22;3952;48.364;16.022;2022-08-19T11:58:38;27.50;99.90
7814;DHT22;3952;48.364;16.022;2022-08-19T12:01:08;27.50;99.90
7814;DHT22;3952;48.364;16.022;2022-08-19T12:03:35;27.60;99.90
7814;DHT22;3952;48.364;16.022;2022-08-19T12:06:04;27.70;99.90
7814;DHT22;3952;48.364;16.022;2022-08-19T12:08:33;27.80;99.90
7814;DHT22;3952;48.364;16.022;2022-08-19T12:11:01;27.90;99.90
7814;DHT22;3952;48.364;16.022;2022-08-19T12:13:28;28.00;99.90
7814;DHT22;3952;48.364;16.022;2022-08-19T12:15:56;28.00;99.90
7814;DHT22;3952;48.364;16.022;2022-08-19T12:18:24;27.90;99.90
7814;DHT22;3952;48.364;16.022;2022-08-19T12:20:52;28.00;99.90
7814;DHT22;3952;48.364;16.022;2022-08-19T12:23:20;28.00;99.90
7814;DHT22;3952;48.364;16.022;2022-08-19T12:25:49;28.00;99.90
7814;DHT22;3952;48.364;16.022;2022-08-19T12:28:18;28.00;99.90
7814;DHT22;3952;48.364;16.022;2022-08-19T12:30:46;28.00;99.90
7814;DHT22;3952;48.364;16.022;2022-08-19T12:33:14;28.00;99.90
7814;DHT22;3952;48.364;16.022;2022-08-19T12:35:41;28.10;99.90
7814;DHT22;3952;48.364;16.022;2022-08-19T12:38:10;28.00;99.90
7814;DHT22;3952;48.364;16.022;2022-08-19T12:40:38;28.00;99.90
7814;DHT22;3952;48.364;16.022;2022-08-19T12:43:08;28.00;99.90
7814;DHT22;3952;48.364;16.022;2022-08-19T12:45:37;27.90;99.90
7814;DHT22;3952;48.364;16.022;2022-08-19T12:48:04;27.90;99.90
7814;DHT22;3952;48.364;16.022;2022-08-19T12:50:32;27.90;99.90
7814;DHT22;3952;48.364;16.022;2022-08-19T12:52:59;27.90;99.90
7814;DHT22;3952;48.364;16.022;2022-08-19T12:55:26;27.90;99.90
7814;DHT22;3952;48.364;16.022;2022-08-19T12:57:54;27.90;99.90
7814;DHT22;3952;48.364;16.022;2022-08-19T13:00:24;27.90;99.90
7814;DHT22;3952;48.364;16.022;2022-08-19T13:02:51;27.90;99.90
7814;DHT22;3952;48.364;16.022;2022-08-19T13:05:21;27.90;99.90
7814;DHT22;3952;48.364;16.022;2022-08-19T13:07:50;27.90;99.90
7814;DHT22;3952;48.364;16.022;2022-08-19T13:10:20;27.90;99.90
7814;DHT22;3952;48.364;16.022;2022-08-19T13:12:49;27.90;99.90
7814;DHT22;3952;48.364;16.022;2022-08-19T13:15:19;28.00;99.90
7814;DHT22;3952;48.364;16.022;2022-08-19T13:17:49;28.00;99.90
7814;DHT22;3952;48.364;16.022;2022-08-19T13:20:19;28.00;99.90
7814;DHT22;3952;48.364;16.022;2022-08-19T13:22:47;28.00;99.90
7814;DHT22;3952;48.364;16.022;2022-08-19T13:25:15;27.90;99.90
7814;DHT22;3952;48.364;16.022;2022-08-19T13:27:46;27.90;99.90
7814;DHT22;3952;48.364;16.022;2022-08-19T13:30:15;27.80;99.90
7814;DHT22;3952;48.364;16.022;2022-08-19T13:33:01;27.80;99.90
7814;DHT22;3952;48.364;16.022;2022-08-19T13:35:38;27.80;99.90
7814;DHT22;3952;48.364;16.022;2022-08-19T13:38:06;27.70;99.90
7814;DHT22;3952;48.364;16.022;2022-08-19T13:40:34;27.70;99.90
7814;DHT22;3952;48.364;16.022;2022-08-19T13:43:02;27.60;99.90
7814;DHT22;3952;48.364;16.022;2022-08-19T13:45:31;27.50;99.90
7814;DHT22;3952;48.364;16.022;2022-08-19T13:48:03;27.40;99.90
7814;DHT22;3952;48.364;16.022;2022-08-19T13:50:32;27.30;99.90
7814;DHT22;3952;48.364;16.022;2022-08-19T13:53:01;27.30;99.90
7814;DHT22;3952;48.364;16.022;2022-08-19T13:55:30;27.20;99.90
7814;DHT22;3952;48.364;16.022;2022-08-19T13:57:59;27.20;99.90
7814;DHT22;3952;48.364;16.022;2022-08-19T14:00:29;27.20;99.90
7814;DHT22;3952;48.364;16.022;2022-08-19T14:02:57;27.10;99.90
7814;DHT22;3952;48.364;16.022;2022-08-19T14:05:27;27.10;99.90
7814;DHT22;3952;48.364;16.022;2022-08-19T14:07:55;27.10;99.90
7814;DHT22;3952;48.364;16.022;2022-08-19T14:10:24;27.20;99.90
7814;DHT22;3952;48.364;16.022;2022-08-19T14:12:53;27.20;99.90
7814;DHT22;3952;48.364;16.022;2022-08-19T14:15:22;27.20;99.90
7814;DHT22;3952;48.364;16.022;2022-08-19T14:17:50;27.30;99.90
7814;DHT22;3952;48.364;16.022;2022-08-19T14:20:18;27.30;99.90
7814;DHT22;3952;48.364;16.022;2022-08-19T14:22:48;27.30;99.90
7814;DHT22;3952;48.364;16.022;2022-08-19T14:25:17;27.30;99.90
7814;DHT22;3952;48.364;16.022;2022-08-19T14:27:46;27.40;99.90
7814;DHT22;3952;48.364;16.022;2022-08-19T14:30:16;27.50;99.90
7814;DHT22;3952;48.364;16.022;2022-08-19T14:32:44;27.60;99.90
7814;DHT22;3952;48.364;16.022;2022-08-19T14:35:12;27.60;99.90
7814;DHT22;3952;48.364;16.022;2022-08-19T14:37:41;27.70;99.90
7814;DHT22;3952;48.364;16.022;2022-08-19T14:40:12;27.70;99.90
7814;DHT22;3952;48.364;16.022;2022-08-19T14:42:40;27.70;99.90
7814;DHT22;3952;48.364;16.022;2022-08-19T14:45:09;27.80;99.90
7814;DHT22;3952;48.364;16.022;2022-08-19T14:47:37;27.90;99.90
7814;DHT22;3952;48.364;16.022;2022-08-19T14:50:06;27.90;99.90
7814;DHT22;3952;48.364;16.022;2022-08-19T14:52:33;28.00;99.90
7814;DHT22;3952;48.364;16.022;2022-08-19T14:55:01;28.00;99.90
7814;DHT22;3952;48.364;16.022;2022-08-19T14:57:29;28.10;99.90
7814;DHT22;3952;48.364;16.022;2022-08-19T14:59:57;28.10;99.90
7814;DHT22;3952;48.364;16.022;2022-08-19T15:02:24;28.10;99.90
7814;DHT22;3952;48.364;16.022;2022-08-19T15:04:51;28.20;99.90
7814;DHT22;3952;48.364;16.022;2022-08-19T15:07:21;28.20;99.90
7814;DHT22;3952;48.364;16.022;2022-08-19T15:09:49;28.20;99.90
7814;DHT22;3952;48.364;16.022;2022-08-19T15:12:17;28.20;99.90
7814;DHT22;3952;48.364;16.022;2022-08-19T15:14:46;28.20;99.90
7814;DHT22;3952;48.364;16.022;2022-08-19T15:17:16;28.30;99.90
7814;DHT22;3952;48.364;16.022;2022-08-19T15:19:45;28.40;99.90
7814;DHT22;3952;48.364;16.022;2022-08-19T15:22:12;28.40;99.90
7814;DHT22;3952;48.364;16.022;2022-08-19T15:24:41;28.50;99.90
7814;DHT22;3952;48.364;16.022;2022-08-19T15:27:11;28.50;99.90
7814;DHT22;3952;48.364;16.022;2022-08-19T15:29:39;28.60;99.90
7814;DHT22;3952;48.364;16.022;2022-08-19T15:32:08;28.50;99.90
7814;DHT22;3952;48.364;16.022;2022-08-19T15:34:35;28.50;99.90
7814;DHT22;3952;48.364;16.022;2022-08-19T15:37:02;28.50;99.90
7814;DHT22;3952;48.364;16.022;2022-08-19T15:39:30;28.40;99.90
7814;DHT22;3952;48.364;16.022;2022-08-19T15:41:58;28.30;99.90
7814;DHT22;3952;48.364;16.022;2022-08-19T15:44:26;28.30;99.90
7814;DHT22;3952;48.364;16.022;2022-08-19T15:46:55;28.20;99.90
7814;DHT22;3952;48.364;16.022;2022-08-19T15:49:23;28.10;99.90
7814;DHT22;3952;48.364;16.022;2022-08-19T15:51:50;28.10;99.90
7814;DHT22;3952;48.364;16.022;2022-08-19T15:54:20;28.10;99.90
7814;DHT22;3952;48.364;16.022;2022-08-19T15:56:48;28.10;99.90